Majesty of the Seas — C6FZ8 — position and weather

sailwx.info

Track history (hours):
 
Tides and Currents Weather Stations Pressure Air Temp Water Temp Dewpoint Dewpoint Depression Visibility Wind Speed Wind Dir Waves Ship Positions

Majesty of the Seas (Bahamas)

Last reported at 2018-Dec-12 06:00 UTC. Time now 2018-Dec-12 14:03 UTC.
Position N 20°42' W 086°06'.

Length 268 m; draft 8 m.

Type: Ship. MMSI: 311734000.

Wind from 090 at 17 knots

Barometer 1021.0 mb
Air temperature 23.0 ° C
Visibility: greater than 10.8 NM
Dewpoint 19.9 ° C
Water temperature 28.8 ° C

Date/timePositionNaut miles runAvg speedWind from/ knotsBaromVisibWave heightAir tempDewpointWater temp
2018-Dec-12 06:00N 20°42' W 086°06'101 4.2 090 / 171021.010.8 23.019.928.8
2018-Dec-11 06:00N 19°18' W 087°06'7011.1 350 / 261021.010.8 23.016.528.9
2018-Dec-10 23:40N 20°28' W 087°01'2 8.9
2018-Dec-10 23:23N 20°29' W 086°59'1 2.3
2018-Dec-10 23:00N 20°29' W 086°59'0 0.0
2018-Dec-10 22:30N 20°29' W 086°59'0 0.0
2018-Dec-10 22:00N 20°29' W 086°59'0 0.0
2018-Dec-10 21:30N 20°29' W 086°59'0 0.0
2018-Dec-10 20:57N 20°29' W 086°59'0 0.0
2018-Dec-10 20:30N 20°29' W 086°59'0 0.0
2018-Dec-10 20:00N 20°29' W 086°59'0 0.0
2018-Dec-10 19:30N 20°29' W 086°59'0 0.0
2018-Dec-10 19:00N 20°29' W 086°59'0 0.0
2018-Dec-10 18:30N 20°29' W 086°59'0 0.0
2018-Dec-10 18:00N 20°29' W 086°59'0 0.0
2018-Dec-10 17:30N 20°29' W 086°59'0 0.0
2018-Dec-10 17:00N 20°29' W 086°59'0 0.0
2018-Dec-10 16:30N 20°29' W 086°59'0 0.0
2018-Dec-10 15:54N 20°29' W 086°59'0 0.0
2018-Dec-10 15:30N 20°29' W 086°59'0 0.0
2018-Dec-10 15:00N 20°29' W 086°59'0 0.0
2018-Dec-10 14:30N 20°29' W 086°59'0 0.0
2018-Dec-10 14:00N 20°29' W 086°59'0 0.0
2018-Dec-10 13:30N 20°29' W 086°59'0 0.0
2018-Dec-10 13:00N 20°29' W 086°59'0 0.0
2018-Dec-10 12:27N 20°29' W 086°59'0 0.0
2018-Dec-10 11:57N 20°29' W 086°59'0 0.0
2018-Dec-10 11:30N 20°29' W 086°59'1 1.4
2018-Dec-10 11:01N 20°29' W 086°59'4 8.7
2018-Dec-10 10:30N 20°34' W 086°58'5 9.0
2018-Dec-10 09:54N 20°38' W 086°55'4110.4
2018-Dec-10 06:00N 21°00' W 086°18'19216.0 340 / 191017.110.8 25.022.028.8
2018-Dec-09 18:00N 23°06' W 083°42'19716.4 250 / 171014.927.0 28.022.128.0
2018-Dec-09 06:00N 24°24' W 080°24'8814.0 130 / 201018.010.8 25.022.028.2
2018-Dec-08 23:42N 25°46' W 079°48'313.6
2018-Dec-08 23:28N 25°48' W 079°51'613.6
2018-Dec-08 23:00N 25°53' W 079°55'713.6
2018-Dec-08 22:30N 25°59' W 079°60'713.7
2018-Dec-08 22:01N 26°04' W 080°04'3 6.0
2018-Dec-08 21:31N 26°05' W 080°07'0 0.0
2018-Dec-08 20:56N 26°05' W 080°07'0 0.0
2018-Dec-08 20:26N 26°05' W 080°07'0 0.0
2018-Dec-08 19:56N 26°05' W 080°07'0 0.0
2018-Dec-08 19:23N 26°05' W 080°07'0 0.0
2018-Dec-08 18:59N 26°05' W 080°07'0 0.0
2018-Dec-08 18:29N 26°05' W 080°07'0 0.0
2018-Dec-08 17:59N 26°05' W 080°07'0 0.0
2018-Dec-08 17:29N 26°05' W 080°07'0 0.0
2018-Dec-08 16:59N 26°05' W 080°07'0 0.0
2018-Dec-08 16:29N 26°05' W 080°07'0 0.0
2018-Dec-08 15:59N 26°05' W 080°07'0 0.0
2018-Dec-08 15:29N 26°05' W 080°07'0 0.0
2018-Dec-08 14:59N 26°05' W 080°07'0 0.0
2018-Dec-08 14:29N 26°05' W 080°07'0 0.0
2018-Dec-08 13:59N 26°05' W 080°07'0 0.0
2018-Dec-08 13:29N 26°05' W 080°07'0 0.0
2018-Dec-08 12:59N 26°05' W 080°07'0 0.0
2018-Dec-08 12:29N 26°05' W 080°07'0 0.0
2018-Dec-08 11:50N 26°05' W 080°07'0 0.9
2018-Dec-08 11:30N 26°06' W 080°07'4 8.3
2018-Dec-08 11:00N 26°06' W 080°02'612.0
2018-Dec-08 10:30N 26°02' W 079°57'713.4
2018-Dec-08 10:00N 25°57' W 079°52'815.3
2018-Dec-08 09:30N 25°50' W 079°49'714.8
2018-Dec-08 09:01N 25°43' W 079°47'714.3
2018-Dec-08 08:31N 25°36' W 079°46'714.1
2018-Dec-08 08:01N 25°29' W 079°46'714.2
2018-Dec-08 07:31N 25°22' W 079°46'2315.1
2018-Dec-08 06:00N 25°00' W 079°54'19216.0 110 / 201022.210.8 23.016.528.3
2018-Dec-07 18:00N 23°42' W 083°06'28715.1 070 / 181022.227.0 24.019.328.0
2018-Dec-06 22:57N 20°31' W 086°57'1 1.0
2018-Dec-06 22:26N 20°31' W 086°57'0 0.0
2018-Dec-06 21:56N 20°31' W 086°57'0 0.0
2018-Dec-06 21:26N 20°31' W 086°57'0 0.0
2018-Dec-06 20:56N 20°31' W 086°57'0 0.0
2018-Dec-06 20:26N 20°31' W 086°57'0 0.0
2018-Dec-06 19:56N 20°31' W 086°57'0 0.0
2018-Dec-06 19:26N 20°31' W 086°57'0 0.0
2018-Dec-06 18:56N 20°31' W 086°57'0 0.0
2018-Dec-06 18:26N 20°31' W 086°57'0 0.0
2018-Dec-06 17:56N 20°31' W 086°57'0 0.0
2018-Dec-06 17:26N 20°31' W 086°57'0 0.0
2018-Dec-06 16:56N 20°31' W 086°57'0 0.0
2018-Dec-06 16:26N 20°31' W 086°57'0 0.0
2018-Dec-06 15:56N 20°31' W 086°57'0 0.0
2018-Dec-06 15:26N 20°31' W 086°57'0 0.0
2018-Dec-06 14:56N 20°31' W 086°57'0 0.0
2018-Dec-06 14:26N 20°31' W 086°57'0 0.0
2018-Dec-06 13:56N 20°31' W 086°57'0 0.0
2018-Dec-06 13:26N 20°31' W 086°57'0 0.0
2018-Dec-06 13:01N 20°31' W 086°57'0 0.1
2018-Dec-06 12:30N 20°31' W 086°57'1 1.5
2018-Dec-06 12:00N 20°31' W 086°58'5 9.0
2018-Dec-06 11:30N 20°36' W 086°58'  
2018-Dec-04 06:00N 24°24' W 080°36'8914.0 060 / 121016.110.8 26.019.928.4
2018-Dec-03 23:39N 25°40' W 079°45'214.9
2018-Dec-03 23:30N 25°42' W 079°46'714.9
2018-Dec-03 23:00N 25°49' W 079°49'714.3
2018-Dec-03 22:30N 25°56' W 079°52'714.1
2018-Dec-03 22:00N 26°01' W 079°56'714.6
2018-Dec-03 21:30N 26°06' W 080°03'4 6.2
2018-Dec-03 20:53N 26°05' W 080°07'0 0.0
2018-Dec-03 20:23N 26°05' W 080°07'0 0.0
2018-Dec-03 19:53N 26°05' W 080°07'0 0.0
2018-Dec-03 19:20N 26°05' W 080°07'0 0.0
2018-Dec-03 18:53N 26°05' W 080°07'0 0.0
2018-Dec-03 18:26N 26°05' W 080°07'0 0.0
2018-Dec-03 17:56N 26°05' W 080°07'0 0.0
2018-Dec-03 17:26N 26°05' W 080°07'0 0.0
2018-Dec-03 16:56N 26°05' W 080°07'0 0.0
2018-Dec-03 16:23N 26°05' W 080°07'0 0.0
2018-Dec-03 15:59N 26°05' W 080°07'0 0.0
2018-Dec-03 15:29N 26°05' W 080°07'0 0.0
2018-Dec-03 14:59N 26°05' W 080°07'0 0.0
2018-Dec-03 14:29N 26°05' W 080°07'0 0.0
2018-Dec-03 13:56N 26°05' W 080°07'0 0.0
2018-Dec-03 13:29N 26°05' W 080°07'0 0.0
2018-Dec-03 12:59N 26°05' W 080°07'0 0.0
2018-Dec-03 12:29N 26°05' W 080°07'0 0.0
2018-Dec-03 11:59N 26°05' W 080°07'0 0.6
2018-Dec-03 11:30N 26°06' W 080°07'4 7.8
2018-Dec-03 11:00N 26°06' W 080°03'611.7
2018-Dec-03 10:30N 26°07' W 079°56'611.1
2018-Dec-03 10:00N 26°09' W 079°51'5 9.7
2018-Dec-03 09:30N 26°10' W 079°45'611.5
2018-Dec-03 09:00N 26°11' W 079°39'611.2
2018-Dec-03 08:30N 26°13' W 079°33'510.4
2018-Dec-03 08:00N 26°14' W 079°27'2012.9
2018-Dec-03 06:29N 26°16' W 079°06'715.8
2018-Dec-03 06:00N 26°16' W 078°57'  
Track history (hours):
 
Tides and Currents Weather Stations Pressure Air Temp Water Temp Dewpoint Dewpoint Depression Visibility Wind Speed Wind Dir Waves Ship Positions

Majesty of the Seas (Bahamas)

Last reported at 2018-Dec-12 06:00 UTC. Time now 2018-Dec-12 14:03 UTC.
Position N 20°42' W 086°06'.

Length 268 m; draft 8 m.

Type: Ship. MMSI: 311734000.

Wind from 090 at 17 knots

Barometer 1021.0 mb
Air temperature 23.0 ° C
Visibility: greater than 10.8 NM
Dewpoint 19.9 ° C
Water temperature 28.8 ° C

Date/timePositionNaut miles runAvg speedWind from/ knotsBaromVisibWave heightAir tempDewpointWater temp
2018-Dec-12 06:00N 20°42' W 086°06'101 4.2 090 / 171021.010.8 23.019.928.8
2018-Dec-11 06:00N 19°18' W 087°06'7011.1 350 / 261021.010.8 23.016.528.9
2018-Dec-10 23:40N 20°28' W 087°01'2 8.9
2018-Dec-10 23:23N 20°29' W 086°59'1 2.3
2018-Dec-10 23:00N 20°29' W 086°59'0 0.0
2018-Dec-10 22:30N 20°29' W 086°59'0 0.0
2018-Dec-10 22:00N 20°29' W 086°59'0 0.0
2018-Dec-10 21:30N 20°29' W 086°59'0 0.0
2018-Dec-10 20:57N 20°29' W 086°59'0 0.0
2018-Dec-10 20:30N 20°29' W 086°59'0 0.0
2018-Dec-10 20:00N 20°29' W 086°59'0 0.0
2018-Dec-10 19:30N 20°29' W 086°59'0 0.0
2018-Dec-10 19:00N 20°29' W 086°59'0 0.0
2018-Dec-10 18:30N 20°29' W 086°59'0 0.0
2018-Dec-10 18:00N 20°29' W 086°59'0 0.0
2018-Dec-10 17:30N 20°29' W 086°59'0 0.0
2018-Dec-10 17:00N 20°29' W 086°59'0 0.0
2018-Dec-10 16:30N 20°29' W 086°59'0 0.0
2018-Dec-10 15:54N 20°29' W 086°59'0 0.0
2018-Dec-10 15:30N 20°29' W 086°59'0 0.0
2018-Dec-10 15:00N 20°29' W 086°59'0 0.0
2018-Dec-10 14:30N 20°29' W 086°59'0 0.0
2018-Dec-10 14:00N 20°29' W 086°59'0 0.0
2018-Dec-10 13:30N 20°29' W 086°59'0 0.0
2018-Dec-10 13:00N 20°29' W 086°59'0 0.0
2018-Dec-10 12:27N 20°29' W 086°59'0 0.0
2018-Dec-10 11:57N 20°29' W 086°59'0 0.0
2018-Dec-10 11:30N 20°29' W 086°59'1 1.4
2018-Dec-10 11:01N 20°29' W 086°59'4 8.7
2018-Dec-10 10:30N 20°34' W 086°58'5 9.0
2018-Dec-10 09:54N 20°38' W 086°55'4110.4
2018-Dec-10 06:00N 21°00' W 086°18'19216.0 340 / 191017.110.8 25.022.028.8
2018-Dec-09 18:00N 23°06' W 083°42'19716.4 250 / 171014.927.0 28.022.128.0
2018-Dec-09 06:00N 24°24' W 080°24'8814.0 130 / 201018.010.8 25.022.028.2
2018-Dec-08 23:42N 25°46' W 079°48'313.6
2018-Dec-08 23:28N 25°48' W 079°51'613.6
2018-Dec-08 23:00N 25°53' W 079°55'713.6
2018-Dec-08 22:30N 25°59' W 079°60'713.7
2018-Dec-08 22:01N 26°04' W 080°04'3 6.0
2018-Dec-08 21:31N 26°05' W 080°07'0 0.0
2018-Dec-08 20:56N 26°05' W 080°07'0 0.0
2018-Dec-08 20:26N 26°05' W 080°07'0 0.0
2018-Dec-08 19:56N 26°05' W 080°07'0 0.0
2018-Dec-08 19:23N 26°05' W 080°07'0 0.0
2018-Dec-08 18:59N 26°05' W 080°07'0 0.0
2018-Dec-08 18:29N 26°05' W 080°07'0 0.0
2018-Dec-08 17:59N 26°05' W 080°07'0 0.0
2018-Dec-08 17:29N 26°05' W 080°07'0 0.0
2018-Dec-08 16:59N 26°05' W 080°07'0 0.0
2018-Dec-08 16:29N 26°05' W 080°07'0 0.0
2018-Dec-08 15:59N 26°05' W 080°07'0 0.0
2018-Dec-08 15:29N 26°05' W 080°07'0 0.0
2018-Dec-08 14:59N 26°05' W 080°07'0 0.0
2018-Dec-08 14:29N 26°05' W 080°07'0 0.0
2018-Dec-08 13:59N 26°05' W 080°07'0 0.0
2018-Dec-08 13:29N 26°05' W 080°07'0 0.0
2018-Dec-08 12:59N 26°05' W 080°07'0 0.0
2018-Dec-08 12:29N 26°05' W 080°07'0 0.0
2018-Dec-08 11:50N 26°05' W 080°07'0 0.9
2018-Dec-08 11:30N 26°06' W 080°07'4 8.3
2018-Dec-08 11:00N 26°06' W 080°02'612.0
2018-Dec-08 10:30N 26°02' W 079°57'713.4
2018-Dec-08 10:00N 25°57' W 079°52'815.3
2018-Dec-08 09:30N 25°50' W 079°49'714.8
2018-Dec-08 09:01N 25°43' W 079°47'714.3
2018-Dec-08 08:31N 25°36' W 079°46'714.1
2018-Dec-08 08:01N 25°29' W 079°46'714.2
2018-Dec-08 07:31N 25°22' W 079°46'2315.1
2018-Dec-08 06:00N 25°00' W 079°54'19216.0 110 / 201022.210.8 23.016.528.3
2018-Dec-07 18:00N 23°42' W 083°06'28715.1 070 / 181022.227.0 24.019.328.0
2018-Dec-06 22:57N 20°31' W 086°57'1 1.0
2018-Dec-06 22:26N 20°31' W 086°57'0 0.0
2018-Dec-06 21:56N 20°31' W 086°57'0 0.0
2018-Dec-06 21:26N 20°31' W 086°57'0 0.0
2018-Dec-06 20:56N 20°31' W 086°57'0 0.0
2018-Dec-06 20:26N 20°31' W 086°57'0 0.0
2018-Dec-06 19:56N 20°31' W 086°57'0 0.0
2018-Dec-06 19:26N 20°31' W 086°57'0 0.0
2018-Dec-06 18:56N 20°31' W 086°57'0 0.0
2018-Dec-06 18:26N 20°31' W 086°57'0 0.0
2018-Dec-06 17:56N 20°31' W 086°57'0 0.0
2018-Dec-06 17:26N 20°31' W 086°57'0 0.0
2018-Dec-06 16:56N 20°31' W 086°57'0 0.0
2018-Dec-06 16:26N 20°31' W 086°57'0 0.0
2018-Dec-06 15:56N 20°31' W 086°57'0 0.0
2018-Dec-06 15:26N 20°31' W 086°57'0 0.0
2018-Dec-06 14:56N 20°31' W 086°57'0 0.0
2018-Dec-06 14:26N 20°31' W 086°57'0 0.0
2018-Dec-06 13:56N 20°31' W 086°57'0 0.0
2018-Dec-06 13:26N 20°31' W 086°57'0 0.0
2018-Dec-06 13:01N 20°31' W 086°57'0 0.1
2018-Dec-06 12:30N 20°31' W 086°57'1 1.5
2018-Dec-06 12:00N 20°31' W 086°58'5 9.0
2018-Dec-06 11:30N 20°36' W 086°58'  
2018-Dec-04 06:00N 24°24' W 080°36'8914.0 060 / 121016.110.8 26.019.928.4
2018-Dec-03 23:39N 25°40' W 079°45'214.9
2018-Dec-03 23:30N 25°42' W 079°46'714.9
2018-Dec-03 23:00N 25°49' W 079°49'714.3
2018-Dec-03 22:30N 25°56' W 079°52'714.1
2018-Dec-03 22:00N 26°01' W 079°56'714.6
2018-Dec-03 21:30N 26°06' W 080°03'4 6.2
2018-Dec-03 20:53N 26°05' W 080°07'0 0.0
2018-Dec-03 20:23N 26°05' W 080°07'0 0.0
2018-Dec-03 19:53N 26°05' W 080°07'0 0.0
2018-Dec-03 19:20N 26°05' W 080°07'0 0.0
2018-Dec-03 18:53N 26°05' W 080°07'0 0.0
2018-Dec-03 18:26N 26°05' W 080°07'0 0.0
2018-Dec-03 17:56N 26°05' W 080°07'0 0.0
2018-Dec-03 17:26N 26°05' W 080°07'0 0.0
2018-Dec-03 16:56N 26°05' W 080°07'0 0.0
2018-Dec-03 16:23N 26°05' W 080°07'0 0.0
2018-Dec-03 15:59N 26°05' W 080°07'0 0.0
2018-Dec-03 15:29N 26°05' W 080°07'0 0.0
2018-Dec-03 14:59N 26°05' W 080°07'0 0.0
2018-Dec-03 14:29N 26°05' W 080°07'0 0.0
2018-Dec-03 13:56N 26°05' W 080°07'0 0.0
2018-Dec-03 13:29N 26°05' W 080°07'0 0.0
2018-Dec-03 12:59N 26°05' W 080°07'0 0.0
2018-Dec-03 12:29N 26°05' W 080°07'0 0.0
2018-Dec-03 11:59N 26°05' W 080°07'0 0.6
2018-Dec-03 11:30N 26°06' W 080°07'4 7.8
2018-Dec-03 11:00N 26°06' W 080°03'611.7
2018-Dec-03 10:30N 26°07' W 079°56'611.1
2018-Dec-03 10:00N 26°09' W 079°51'5 9.7
2018-Dec-03 09:30N 26°10' W 079°45'611.5
2018-Dec-03 09:00N 26°11' W 079°39'611.2
2018-Dec-03 08:30N 26°13' W 079°33'510.4
2018-Dec-03 08:00N 26°14' W 079°27'2012.9
2018-Dec-03 06:29N 26°16' W 079°06'715.8
2018-Dec-03 06:00N 26°16' W 078°57'  

Dump ship's entire track history